createdAt,value
2023-05-18T00:02:16.129Z,99930.78
2023-05-18T00:04:49.112Z,99935.41
2023-05-18T00:07:22.570Z,99929.34
2023-05-18T00:09:55.487Z,99917.72
2023-05-18T00:12:28.444Z,99922.44
2023-05-18T00:15:02.739Z,99926.03
2023-05-18T00:17:35.759Z,99927.44
2023-05-18T00:20:09.775Z,99929.63
2023-05-18T00:22:42.996Z,99935.75
2023-05-18T00:25:15.908Z,99927.72
2023-05-18T00:27:50.042Z,99934.81
2023-05-18T00:30:26.255Z,99930.47
2023-05-18T00:32:59.457Z,99930.88
2023-05-18T00:35:32.527Z,99932.34
2023-05-18T00:38:05.649Z,99928.84
2023-05-18T00:40:38.607Z,99935.91
2023-05-18T00:43:11.806Z,99922.84
2023-05-18T00:45:46.139Z,99925.25
2023-05-18T00:48:19.308Z,99927.22
2023-05-18T00:50:52.157Z,99935.78
2023-05-18T00:53:25.011Z,99929.72
2023-05-18T00:55:58.118Z,99928.19
2023-05-18T00:58:31.326Z,99930.16
2023-05-18T01:01:06.276Z,99933.94
2023-05-18T01:03:39.853Z,99930.53
2023-05-18T01:06:13.010Z,99928.91
2023-05-18T01:08:46.066Z,99926.31
2023-05-18T01:11:28.155Z,99931.50
2023-05-18T01:14:07.775Z,99922.94
2023-05-18T01:16:46.421Z,99920.03
2023-05-18T01:19:51.434Z,99924.81
2023-05-18T01:22:38.743Z,99927.31
2023-05-18T01:25:19.621Z,99922.69
2023-05-18T01:27:56.221Z,99921.66
2023-05-18T01:30:29.328Z,99920.78
2023-05-18T01:33:02.324Z,99928.09
2023-05-18T01:35:35.570Z,99926.59
2023-05-18T01:38:08.987Z,99934.28
2023-05-18T01:40:49.296Z,99922.38
2023-05-18T01:43:29.565Z,99921.38
2023-05-18T01:46:06.129Z,99921.88
2023-05-18T01:48:42.877Z,99921.53
2023-05-18T01:51:21.323Z,99915.59
2023-05-18T01:54:01.811Z,99910.69
2023-05-18T01:56:36.995Z,99913.06
2023-05-18T01:59:12.064Z,99911.63
2023-05-18T02:01:45.926Z,99909.78
2023-05-18T02:04:18.902Z,99918.00
2023-05-18T02:06:54.275Z,99915.81
2023-05-18T02:09:27.758Z,99920.72
2023-05-18T02:12:00.894Z,99919.94
2023-05-18T02:14:35.549Z,99922.78
2023-05-18T02:17:08.558Z,99919.59
2023-05-18T02:19:41.459Z,99923.97
2023-05-18T02:22:14.432Z,99922.00
2023-05-18T02:24:47.562Z,99907.84
2023-05-18T02:27:20.845Z,99916.53
2023-05-18T02:29:56.905Z,99907.75
2023-05-18T02:32:32.569Z,99915.19
2023-05-18T02:35:06.852Z,99909.19
2023-05-18T02:37:42.389Z,99913.06
2023-05-18T02:40:16.288Z,99903.97
2023-05-18T02:42:49.594Z,99903.50
2023-05-18T02:45:24.180Z,99895.50
2023-05-18T02:47:57.236Z,99897.69
2023-05-18T02:50:30.472Z,99894.13
2023-05-18T02:53:03.675Z,99891.72
2023-05-18T02:55:37.715Z,99898.78
2023-05-18T02:58:20.470Z,99895.94
2023-05-18T03:01:21.488Z,99897.13
2023-05-18T03:03:58.466Z,99891.66
2023-05-18T03:06:32.531Z,99888.09
2023-05-18T03:09:05.747Z,99890.84
2023-05-18T03:11:44.510Z,99889.72
2023-05-18T03:14:17.574Z,99893.09
2023-05-18T03:16:54.405Z,99887.44
2023-05-18T03:19:29.545Z,99896.13
2023-05-18T03:22:03.874Z,99895.66
2023-05-18T03:24:40.346Z,99890.25
2023-05-18T03:27:18.523Z,99890.88
2023-05-18T03:29:53.201Z,99884.41
2023-05-18T03:32:28.469Z,99891.88
2023-05-18T03:35:02.160Z,99890.81
2023-05-18T03:37:35.814Z,99894.31
2023-05-18T03:40:15.784Z,99892.69
2023-05-18T03:42:50.578Z,99896.97
2023-05-18T03:45:23.649Z,99900.63
2023-05-18T03:47:58.430Z,99898.53
2023-05-18T03:50:31.740Z,99897.16
2023-05-18T03:53:06.534Z,99898.09
2023-05-18T03:55:39.699Z,99893.19
2023-05-18T03:58:12.844Z,99890.28
2023-05-18T04:00:46.006Z,99898.81
2023-05-18T04:03:21.768Z,99901.16
2023-05-18T04:05:55.963Z,99904.31
2023-05-18T04:08:30.353Z,99901.44
2023-05-18T04:11:05.138Z,99911.38
2023-05-18T04:13:39.596Z,99908.78
2023-05-18T04:16:13.770Z,99908.81
2023-05-18T04:18:48.489Z,99904.28
2023-05-18T04:21:21.643Z,99915.13
2023-05-18T04:23:54.886Z,99915.63
2023-05-18T04:26:28.049Z,99925.00
2023-05-18T04:29:01.872Z,99931.75
2023-05-18T04:31:35.750Z,99926.59
2023-05-18T04:34:10.185Z,99929.94
2023-05-18T04:36:44.412Z,99925.03
2023-05-18T04:39:18.557Z,99922.41
2023-05-18T04:41:58.072Z,99924.31
2023-05-18T04:44:34.228Z,99927.13
2023-05-18T04:47:08.478Z,99934.31
2023-05-18T04:49:43.791Z,99931.38
2023-05-18T04:52:17.088Z,99933.63
2023-05-18T04:54:50.137Z,99933.97
2023-05-18T04:57:23.572Z,99938.84
2023-05-18T04:59:58.425Z,99935.91
2023-05-18T05:02:31.657Z,99937.22
2023-05-18T05:05:06.978Z,99940.03
2023-05-18T05:07:41.138Z,99940.22
2023-05-18T05:10:15.904Z,99931.53
2023-05-18T05:12:51.492Z,99937.13
2023-05-18T05:15:25.483Z,99943.78
2023-05-18T05:17:59.995Z,99947.50
2023-05-18T05:20:34.692Z,99942.34
2023-05-18T05:23:08.714Z,99938.34
2023-05-18T05:25:45.073Z,99935.03
2023-05-18T05:28:18.197Z,99939.69
2023-05-18T05:30:51.376Z,99941.00
2023-05-18T05:33:24.363Z,99950.28
2023-05-18T05:35:58.727Z,99946.03
2023-05-18T05:38:32.018Z,99947.50
2023-05-18T05:41:05.121Z,99942.09
2023-05-18T05:43:38.073Z,99956.50
2023-05-18T05:46:12.246Z,99948.66
2023-05-18T05:48:45.555Z,99952.84
2023-05-18T05:51:19.830Z,99954.06
2023-05-18T05:53:53.425Z,99954.09
2023-05-18T05:56:27.395Z,99957.78
2023-05-18T05:59:01.026Z,99960.19
2023-05-18T06:01:34.896Z,99959.91
2023-05-18T06:04:10.856Z,99959.94
2023-05-18T06:06:45.557Z,99958.72
2023-05-18T06:09:18.769Z,99957.94
2023-05-18T06:11:52.956Z,99959.94
2023-05-18T06:14:26.275Z,99957.16
2023-05-18T06:17:00.061Z,99951.22
2023-05-18T06:19:33.400Z,99957.19
2023-05-18T06:22:08.003Z,99963.16
2023-05-18T06:24:49.884Z,99956.31
2023-05-18T06:27:52.441Z,99959.09
2023-05-18T06:30:41.565Z,99943.88
2023-05-18T06:33:41.109Z,99948.94
2023-05-18T06:36:14.204Z,99940.16
2023-05-18T06:38:48.491Z,99950.50
2023-05-18T06:41:22.481Z,99958.00
2023-05-18T06:43:56.242Z,99951.50
2023-05-18T06:46:30.078Z,99958.19
2023-05-18T06:49:08.551Z,99964.91
2023-05-18T06:51:41.813Z,99958.81
2023-05-18T06:54:17.549Z,99956.00
2023-05-18T06:56:50.821Z,99960.84
2023-05-18T06:59:23.742Z,99958.63
2023-05-18T07:01:56.776Z,99962.47
2023-05-18T07:04:31.025Z,99954.78
2023-05-18T07:07:04.284Z,99957.28
2023-05-18T07:09:38.611Z,99962.41
2023-05-18T07:12:11.546Z,99964.56
2023-05-18T07:14:44.744Z,99961.66
2023-05-18T07:17:17.630Z,99962.47
2023-05-18T07:19:50.440Z,99966.72
2023-05-18T07:22:23.342Z,99968.28
2023-05-18T07:24:59.032Z,99960.69
2023-05-18T07:27:33.349Z,99964.03
2023-05-18T07:30:08.254Z,99956.06
2023-05-18T07:32:41.362Z,99955.19
2023-05-18T07:35:16.783Z,99951.78
2023-05-18T07:37:51.833Z,99956.34
2023-05-18T07:40:26.160Z,99945.22
2023-05-18T07:42:59.047Z,99945.94
2023-05-18T07:45:32.505Z,99945.88
2023-05-18T07:48:07.819Z,99935.22
2023-05-18T07:50:41.492Z,99950.69
2023-05-18T07:53:14.252Z,99938.91
2023-05-18T07:55:49.959Z,99933.84
2023-05-18T07:58:22.811Z,99935.56
2023-05-18T08:00:55.673Z,99939.50
2023-05-18T08:03:28.608Z,99939.94
2023-05-18T08:06:01.511Z,99930.75
2023-05-18T08:08:36.242Z,99937.34
2023-05-18T08:11:10.395Z,99934.28
2023-05-18T08:13:44.541Z,99925.16
2023-05-18T08:16:17.545Z,99923.22
2023-05-18T08:18:50.614Z,99921.75
2023-05-18T08:21:23.544Z,99929.38
2023-05-18T08:23:56.508Z,99922.47
2023-05-18T08:26:30.791Z,99917.44
2023-05-18T08:29:09.578Z,99915.59
2023-05-18T08:31:42.755Z,99921.06
2023-05-18T08:34:29.358Z,99919.13
2023-05-18T08:37:02.310Z,99915.75
2023-05-18T08:39:36.829Z,99908.28
2023-05-18T08:42:20.589Z,99901.63
2023-05-18T08:45:12.158Z,99899.72
2023-05-18T08:47:45.984Z,99900.50
2023-05-18T08:50:24.511Z,99901.66
2023-05-18T08:53:01.992Z,99896.66
2023-05-18T08:55:37.261Z,99908.91
2023-05-18T08:58:18.648Z,99901.06
2023-05-18T09:00:54.687Z,99892.72
2023-05-18T09:03:27.582Z,99891.16
2023-05-18T09:06:01.720Z,99895.53
2023-05-18T09:08:35.129Z,99889.94
2023-05-18T09:11:09.463Z,99891.84
2023-05-18T09:13:44.882Z,99887.72
2023-05-18T09:16:18.588Z,99890.56
2023-05-18T09:18:52.138Z,99887.72
2023-05-18T09:21:25.049Z,99895.13
2023-05-18T09:23:58.199Z,99896.66
2023-05-18T09:26:31.374Z,99888.13
2023-05-18T09:29:17.012Z,99876.44
2023-05-18T09:31:50.230Z,99870.00
2023-05-18T09:34:24.603Z,99884.16
2023-05-18T09:36:58.091Z,99876.31
2023-05-18T09:39:31.404Z,99881.66
2023-05-18T09:42:04.863Z,99876.91
2023-05-18T09:44:39.049Z,99881.63
2023-05-18T09:47:11.874Z,99878.97
2023-05-18T09:49:45.026Z,99880.50
2023-05-18T09:52:17.846Z,99871.53
2023-05-18T09:54:58.758Z,99865.44
2023-05-18T09:57:31.754Z,99855.97
2023-05-18T10:00:11.010Z,99859.94
2023-05-18T10:02:48.960Z,99868.28
2023-05-18T10:05:23.788Z,99862.94
2023-05-18T10:07:59.269Z,99853.13
2023-05-18T10:10:32.499Z,99855.28
2023-05-18T10:13:06.112Z,99867.50
2023-05-18T10:15:48.417Z,99859.84
2023-05-18T10:18:24.164Z,99855.38
2023-05-18T10:21:00.185Z,99861.47
2023-05-18T10:23:34.873Z,99847.84
2023-05-18T10:26:09.907Z,99849.09
2023-05-18T10:28:44.568Z,99847.22
2023-05-18T10:31:21.621Z,99853.63
2023-05-18T10:33:54.447Z,99840.94
2023-05-18T10:36:30.034Z,99843.50
2023-05-18T10:39:04.582Z,99840.75
2023-05-18T10:41:39.177Z,99831.47
2023-05-18T10:44:12.498Z,99832.00
2023-05-18T10:46:47.000Z,99830.38
2023-05-18T10:49:25.203Z,99834.69
2023-05-18T10:51:59.043Z,99831.38
2023-05-18T10:54:32.221Z,99818.44
2023-05-18T10:57:05.211Z,99836.00
2023-05-18T10:59:42.965Z,99829.72
2023-05-18T11:02:19.999Z,99828.13
2023-05-18T11:04:54.487Z,99823.84
2023-05-18T11:07:30.530Z,99816.78
2023-05-18T11:10:04.366Z,99826.31
2023-05-18T11:12:39.254Z,99808.38
2023-05-18T11:15:12.688Z,99810.19
2023-05-18T11:17:47.117Z,99820.69
2023-05-18T11:20:20.074Z,99814.53
2023-05-18T11:23:02.874Z,99808.50
2023-05-18T11:25:44.863Z,99817.34
2023-05-18T11:28:37.425Z,99818.53
2023-05-18T11:31:19.221Z,99820.94
2023-05-18T11:33:54.045Z,99815.63
2023-05-18T11:36:28.951Z,99815.81
2023-05-18T11:39:06.828Z,99817.00
2023-05-18T11:41:42.674Z,99809.47
2023-05-18T11:44:17.737Z,99816.41
2023-05-18T11:47:01.105Z,99825.13
2023-05-18T11:49:43.771Z,99812.66
2023-05-18T11:52:20.889Z,99815.81
2023-05-18T11:54:55.570Z,99802.19
2023-05-18T11:57:40.759Z,99805.94
2023-05-18T12:00:16.076Z,99804.34
2023-05-18T12:02:52.641Z,99799.19
2023-05-18T12:05:32.113Z,99808.53
2023-05-18T12:08:06.105Z,99797.41
2023-05-18T12:10:40.018Z,99795.16
2023-05-18T12:13:18.764Z,99800.50
2023-05-18T12:15:53.173Z,99796.72
2023-05-18T12:18:29.944Z,99798.78
2023-05-18T12:21:07.112Z,99785.34
2023-05-18T12:23:40.235Z,99788.97
2023-05-18T12:26:14.414Z,99803.66
2023-05-18T12:28:47.766Z,99796.88
2023-05-18T12:31:20.932Z,99786.91
2023-05-18T12:33:56.752Z,99786.59
2023-05-18T12:36:33.766Z,99787.63
2023-05-18T12:39:07.031Z,99792.41
2023-05-18T12:41:39.860Z,99789.97
2023-05-18T12:44:12.829Z,99791.72
2023-05-18T12:46:46.056Z,99790.19
2023-05-18T12:49:20.228Z,99785.75
2023-05-18T12:51:56.914Z,99774.59
2023-05-18T12:54:30.705Z,99770.81
2023-05-18T12:57:07.743Z,99780.47
2023-05-18T12:59:49.485Z,99771.50
2023-05-18T13:02:31.552Z,99775.09
2023-05-18T13:05:07.567Z,99765.28
2023-05-18T13:07:43.532Z,99763.56
2023-05-18T13:10:19.582Z,99758.19
2023-05-18T13:12:54.178Z,99762.44
2023-05-18T13:15:26.972Z,99759.13
2023-05-18T13:18:01.400Z,99757.41
2023-05-18T13:20:36.703Z,99755.63
2023-05-18T13:23:14.161Z,99755.84
2023-05-18T13:25:47.295Z,99750.47
2023-05-18T13:28:22.792Z,99744.34
2023-05-18T13:30:55.850Z,99755.06
2023-05-18T13:33:28.602Z,99746.75
2023-05-18T13:36:03.174Z,99743.63
2023-05-18T13:38:38.007Z,99736.19
2023-05-18T13:41:12.362Z,99742.03
2023-05-18T13:43:45.375Z,99745.53
2023-05-18T13:46:18.890Z,99742.91
2023-05-18T13:48:51.877Z,99740.19
2023-05-18T13:51:24.761Z,99735.72
2023-05-18T13:53:59.204Z,99737.53
2023-05-18T13:56:32.190Z,99731.00
2023-05-18T13:59:04.980Z,99727.56
2023-05-18T14:01:38.049Z,99731.75
2023-05-18T14:04:11.232Z,99729.31
2023-05-18T14:06:44.026Z,99727.84
2023-05-18T14:09:18.308Z,99733.00
2023-05-18T14:11:53.659Z,99722.91
2023-05-18T14:14:26.792Z,99721.53
2023-05-18T14:16:59.865Z,99726.94
2023-05-18T14:19:32.974Z,99718.69
2023-05-18T14:22:06.260Z,99716.25
2023-05-18T14:24:40.476Z,99710.38
2023-05-18T14:27:13.330Z,99698.41
2023-05-18T14:29:46.261Z,99707.97
2023-05-18T14:32:20.774Z,99705.28
2023-05-18T14:34:55.820Z,99711.66
2023-05-18T14:37:28.973Z,99706.91
2023-05-18T14:40:05.969Z,99702.72
2023-05-18T14:42:39.032Z,99693.03
2023-05-18T14:45:12.269Z,99700.78
2023-05-18T14:47:45.162Z,99702.84
2023-05-18T14:50:18.227Z,99690.00
2023-05-18T14:52:52.173Z,99694.41
2023-05-18T14:55:26.467Z,99689.44
2023-05-18T14:57:59.254Z,99689.06
2023-05-18T15:00:33.719Z,99676.84
2023-05-18T15:03:07.053Z,99671.22
2023-05-18T15:05:43.603Z,99671.41
2023-05-18T15:11:52.165Z,99667.31
2023-05-18T15:14:44.037Z,99663.09
2023-05-18T15:17:24.193Z,99668.69
2023-05-18T15:19:57.092Z,99662.44
2023-05-18T15:22:30.148Z,99666.69
2023-05-18T15:25:05.370Z,99673.16
2023-05-18T15:27:39.945Z,99668.03
2023-05-18T15:30:13.895Z,99667.75
2023-05-18T15:32:47.265Z,99665.88
2023-05-18T15:35:20.510Z,99669.97
2023-05-18T15:37:53.408Z,99665.31
2023-05-18T15:40:30.192Z,99668.28
2023-05-18T15:43:04.883Z,99676.56
2023-05-18T15:45:42.021Z,99667.25
2023-05-18T15:48:15.298Z,99663.06
2023-05-18T15:50:48.210Z,99670.00
2023-05-18T15:53:21.115Z,99655.16
2023-05-18T15:55:58.778Z,99651.59
2023-05-18T15:58:34.343Z,99652.66
2023-05-18T16:01:07.503Z,99661.44
2023-05-18T16:03:40.647Z,99653.63
2023-05-18T16:06:28.515Z,99652.44
2023-05-18T16:09:07.261Z,99652.28
2023-05-18T16:11:40.260Z,99643.56
2023-05-18T16:14:16.095Z,99655.38
2023-05-18T16:16:49.144Z,99646.81
2023-05-18T16:19:22.578Z,99643.53
2023-05-18T16:22:01.850Z,99643.09
2023-05-18T16:24:37.437Z,99643.56
2023-05-18T16:27:12.694Z,99649.00
2023-05-18T16:29:48.740Z,99643.31
2023-05-18T16:32:22.285Z,99648.03
2023-05-18T16:35:01.228Z,99646.25
2023-05-18T16:37:34.411Z,99646.59
2023-05-18T16:40:08.860Z,99640.97
2023-05-18T16:43:08.460Z,99654.25
2023-05-18T16:46:04.676Z,99650.13
2023-05-18T16:48:40.118Z,99647.94
2023-05-18T16:51:13.012Z,99649.78
2023-05-18T16:53:45.911Z,99650.53
2023-05-18T16:56:22.174Z,99652.16
2023-05-18T16:58:55.039Z,99659.50
2023-05-18T17:01:30.812Z,99654.06
2023-05-18T17:04:03.896Z,99658.78
2023-05-18T17:06:37.790Z,99657.22
2023-05-18T17:09:10.654Z,99662.34
2023-05-18T17:11:43.533Z,99659.84
2023-05-18T17:14:33.680Z,99667.19
2023-05-18T17:17:09.655Z,99669.25
2023-05-18T17:19:45.990Z,99672.44
2023-05-18T17:22:19.511Z,99669.66
2023-05-18T17:25:11.513Z,99669.03
2023-05-18T17:31:46.224Z,99670.00
2023-05-18T17:34:47.510Z,99672.47
2023-05-18T17:37:20.415Z,99674.06
2023-05-18T17:39:53.364Z,99679.16
2023-05-18T17:42:26.279Z,99673.16
2023-05-18T17:44:59.544Z,99686.75
2023-05-18T17:47:32.417Z,99688.63
2023-05-18T17:50:07.939Z,99687.03
2023-05-18T17:52:41.180Z,99684.28
2023-05-18T17:55:15.128Z,99683.22
2023-05-18T17:57:48.103Z,99684.75
2023-05-18T18:00:21.880Z,99688.44
2023-05-18T18:02:55.352Z,99692.38
2023-05-18T18:05:30.520Z,99699.41
2023-05-18T18:08:04.627Z,99692.69
2023-05-18T18:10:37.658Z,99702.50
2023-05-18T18:13:10.750Z,99702.16
2023-05-18T18:15:43.801Z,99696.56
2023-05-18T18:18:16.925Z,99705.25
2023-05-18T18:20:51.767Z,99715.31
2023-05-18T18:23:24.660Z,99708.31
2023-05-18T18:25:57.507Z,99704.72
2023-05-18T18:28:30.522Z,99714.50
2023-05-18T18:31:03.547Z,99716.69
2023-05-18T18:33:41.652Z,99709.47
2023-05-18T18:36:16.040Z,99712.59
2023-05-18T18:38:49.112Z,99708.91
2023-05-18T18:41:22.295Z,99710.91
2023-05-18T18:43:57.097Z,99722.00
2023-05-18T18:46:30.141Z,99710.56
2023-05-18T18:49:03.020Z,99719.84
2023-05-18T18:51:37.148Z,99723.13
2023-05-18T18:54:09.982Z,99718.34
2023-05-18T18:56:43.965Z,99724.88
2023-05-18T18:59:16.885Z,99721.13
2023-05-18T19:01:49.773Z,99731.81
2023-05-18T19:04:23.166Z,99735.53
2023-05-18T19:07:01.899Z,99733.84
2023-05-18T19:09:36.201Z,99735.84
2023-05-18T19:12:09.964Z,99744.53
2023-05-18T19:14:42.971Z,99752.25
2023-05-18T19:17:16.243Z,99751.38
2023-05-18T19:19:49.425Z,99748.66
2023-05-18T19:22:23.739Z,99753.53
2023-05-18T19:24:56.559Z,99757.41
2023-05-18T19:27:29.631Z,99763.41
2023-05-18T19:30:04.253Z,99764.78
2023-05-18T19:32:37.147Z,99769.34
2023-05-18T19:35:10.003Z,99773.44
2023-05-18T19:37:44.628Z,99768.59
2023-05-18T19:40:17.715Z,99778.41
2023-05-18T19:42:50.715Z,99775.66
2023-05-18T19:45:23.613Z,99781.09
2023-05-18T19:47:56.429Z,99780.44
2023-05-18T19:50:29.493Z,99787.97
2023-05-18T19:53:03.802Z,99790.00
2023-05-18T19:55:36.781Z,99791.88
2023-05-18T19:58:09.764Z,99789.84
2023-05-18T20:00:42.660Z,99792.88
2023-05-18T20:03:16.532Z,99786.97
2023-05-18T20:05:50.057Z,99791.47
2023-05-18T20:08:24.250Z,99787.13
2023-05-18T20:10:57.076Z,99789.97
2023-05-18T20:13:30.484Z,99789.44
2023-05-18T20:16:03.929Z,99790.78
2023-05-18T20:18:37.708Z,99801.03
2023-05-18T20:21:10.842Z,99801.38
2023-05-18T20:23:47.349Z,99805.78
2023-05-18T20:26:22.769Z,99802.66
2023-05-18T20:28:55.782Z,99809.19
2023-05-18T20:31:28.727Z,99802.66
2023-05-18T20:34:01.557Z,99808.44
2023-05-18T20:36:35.811Z,99807.56
2023-05-18T20:39:10.188Z,99809.97
2023-05-18T20:41:43.103Z,99814.44
2023-05-18T20:44:17.800Z,99817.91
2023-05-18T20:46:53.097Z,99807.38
2023-05-18T20:49:25.924Z,99819.66
2023-05-18T20:51:58.859Z,99819.91
2023-05-18T20:54:33.130Z,99811.72
2023-05-18T20:57:06.251Z,99810.84
2023-05-18T20:59:39.072Z,99808.84
2023-05-18T21:02:11.884Z,99818.31
2023-05-18T21:04:44.849Z,99801.16
2023-05-18T21:07:18.060Z,99802.44
2023-05-18T21:09:52.541Z,99805.09
2023-05-18T21:12:25.510Z,99810.47
2023-05-18T21:14:58.355Z,99799.50
2023-05-18T21:17:32.197Z,99801.50
2023-05-18T21:20:06.045Z,99793.13
2023-05-18T21:22:39.163Z,99793.59
2023-05-18T21:25:13.497Z,99788.13
2023-05-18T21:27:46.427Z,99796.97
2023-05-18T21:30:19.735Z,99792.31
2023-05-18T21:32:53.056Z,99788.13
2023-05-18T21:35:26.165Z,99792.19
2023-05-18T21:37:59.021Z,99794.84
2023-05-18T21:40:33.390Z,99796.63
2023-05-18T21:43:06.433Z,99787.78
2023-05-18T21:45:39.411Z,99786.59
2023-05-18T21:48:12.391Z,99786.66
2023-05-18T21:50:45.218Z,99789.53
2023-05-18T21:53:18.320Z,99782.16
2023-05-18T21:55:52.742Z,99794.41
2023-05-18T21:58:25.597Z,99788.25
2023-05-18T22:00:58.544Z,99796.88
2023-05-18T22:03:31.365Z,99788.66
2023-05-18T22:06:05.012Z,99795.81
2023-05-18T22:08:38.502Z,99794.56
2023-05-18T22:11:13.008Z,99794.47
2023-05-18T22:13:45.821Z,99786.50
2023-05-18T22:16:18.685Z,99796.94
2023-05-18T22:18:51.627Z,99792.28
2023-05-18T22:21:24.652Z,99802.50
2023-05-18T22:23:57.535Z,99793.63
2023-05-18T22:26:31.803Z,99804.00
2023-05-18T22:29:04.932Z,99798.06
2023-05-18T22:31:38.045Z,99802.84
2023-05-18T22:34:11.075Z,99795.78
2023-05-18T22:36:44.207Z,99800.59
2023-05-18T22:39:18.167Z,99795.06
2023-05-18T22:41:52.886Z,99802.72
2023-05-18T22:44:25.662Z,99794.28
2023-05-18T22:47:00.413Z,99799.13
2023-05-18T22:49:35.906Z,99797.56
2023-05-18T22:52:10.312Z,99802.44
2023-05-18T22:54:45.907Z,99799.28
2023-05-18T22:57:21.195Z,99802.88
2023-05-18T22:59:54.069Z,99806.13
2023-05-18T23:02:27.298Z,99795.31
2023-05-18T23:05:01.236Z,99804.59
2023-05-18T23:07:36.356Z,99806.22
2023-05-18T23:10:12.160Z,99798.69
2023-05-18T23:12:48.356Z,99794.69
2023-05-18T23:15:23.314Z,99801.09
2023-05-18T23:17:56.863Z,99793.56
2023-05-18T23:20:34.614Z,99792.06
2023-05-18T23:23:08.859Z,99796.06
2023-05-18T23:25:41.688Z,99791.31
2023-05-18T23:28:16.630Z,99806.91
2023-05-18T23:30:49.565Z,99802.97
2023-05-18T23:33:23.244Z,99797.75
2023-05-18T23:35:59.792Z,99797.34
2023-05-18T23:38:37.736Z,99795.78
2023-05-18T23:41:11.428Z,99801.00
2023-05-18T23:43:46.389Z,99791.03
2023-05-18T23:46:19.842Z,99789.94
2023-05-18T23:48:53.377Z,99791.53
2023-05-18T23:51:29.850Z,99796.22
2023-05-18T23:54:05.286Z,99797.16
2023-05-18T23:56:38.782Z,99785.59
2023-05-18T23:59:15.767Z,99787.59
